sensor_id;sensor_type;location;lat;lon;timestamp;pressure;altitude;pressure_sealevel;temperature;humidity
65534;BME280;53640;55.838;37.184;2023-10-09T00:01:40;96671.97;;;-0.91;70.39
65534;BME280;53640;55.838;37.184;2023-10-09T00:04:10;96717.06;;;-0.71;70.49
65534;BME280;53640;55.838;37.184;2023-10-09T00:06:37;96694.22;;;-0.86;70.78
65534;BME280;53640;55.838;37.184;2023-10-09T00:09:05;96705.84;;;-0.80;70.28
65534;BME280;53640;55.838;37.184;2023-10-09T00:11:50;96710.09;;;-0.72;70.46
65534;BME280;53640;55.838;37.184;2023-10-09T00:14:30;96695.22;;;-0.87;70.48
65534;BME280;53640;55.838;37.184;2023-10-09T00:17:00;96644.31;;;-1.15;70.42
65534;BME280;53640;55.838;37.184;2023-10-09T00:19:38;96699.31;;;-0.84;70.38
65534;BME280;53640;55.838;37.184;2023-10-09T00:22:05;96746.63;;;-0.61;70.91
65534;BME280;53640;55.838;37.184;2023-10-09T00:24:36;96714.59;;;-0.73;70.06
65534;BME280;53640;55.838;37.184;2023-10-09T00:27:07;96730.28;;;-0.65;70.08
65534;BME280;53640;55.838;37.184;2023-10-09T00:29:49;96751.50;;;-0.51;70.42
65534;BME280;53640;55.838;37.184;2023-10-09T00:32:15;96712.56;;;-0.71;70.08
65534;BME280;53640;55.838;37.184;2023-10-09T00:34:49;96662.03;;;-1.09;70.50
65534;BME280;53640;55.838;37.184;2023-10-09T00:37:18;96769.22;;;-0.45;70.40
65534;BME280;53640;55.838;37.184;2023-10-09T00:39:49;96764.78;;;-0.51;70.79
65534;BME280;53640;55.838;37.184;2023-10-09T00:42:24;96733.75;;;-0.64;70.95
65534;BME280;53640;55.838;37.184;2023-10-09T00:44:59;96741.09;;;-0.59;70.37
65534;BME280;53640;55.838;37.184;2023-10-09T00:47:36;96697.94;;;-0.93;70.41
65534;BME280;53640;55.838;37.184;2023-10-09T00:50:08;96785.97;;;-0.38;70.90
65534;BME280;53640;55.838;37.184;2023-10-09T00:52:41;96753.34;;;-0.58;70.04
65534;BME280;53640;55.838;37.184;2023-10-09T00:55:27;96747.69;;;-0.75;70.38
65534;BME280;53640;55.838;37.184;2023-10-09T00:58:06;96759.84;;;-0.48;70.58
65534;BME280;53640;55.838;37.184;2023-10-09T01:00:39;96750.56;;;-0.77;70.69
65534;BME280;53640;55.838;37.184;2023-10-09T01:03:16;96758.91;;;-0.67;70.56
65534;BME280;53640;55.838;37.184;2023-10-09T01:06:01;96763.97;;;-0.58;71.12
65534;BME280;53640;55.838;37.184;2023-10-09T01:08:38;96772.59;;;-0.63;70.85
65534;BME280;53640;55.838;37.184;2023-10-09T01:11:11;96799.91;;;-0.49;70.79
65534;BME280;53640;55.838;37.184;2023-10-09T01:13:46;96802.78;;;-0.51;70.67
65534;BME280;53640;55.838;37.184;2023-10-09T01:16:12;96794.25;;;-0.66;70.58
65534;BME280;53640;55.838;37.184;2023-10-09T01:18:53;96758.34;;;-0.82;70.79
65534;BME280;53640;55.838;37.184;2023-10-09T01:21:24;96809.72;;;-0.50;70.71
65534;BME280;53640;55.838;37.184;2023-10-09T01:23:53;96817.66;;;-0.37;70.15
65534;BME280;53640;55.838;37.184;2023-10-09T01:26:30;96792.16;;;-0.57;70.41
65534;BME280;53640;55.838;37.184;2023-10-09T01:29:01;96834.97;;;-0.21;70.64
65534;BME280;53640;55.838;37.184;2023-10-09T01:31:28;96800.75;;;-0.55;70.47
65534;BME280;53640;55.838;37.184;2023-10-09T01:34:04;96834.41;;;-0.29;70.43
65534;BME280;53640;55.838;37.184;2023-10-09T01:36:36;96849.31;;;-0.28;70.38
65534;BME280;53640;55.838;37.184;2023-10-09T01:39:05;96828.94;;;-0.41;70.33
65534;BME280;53640;55.838;37.184;2023-10-09T01:41:36;96872.75;;;-0.12;70.65
65534;BME280;53640;55.838;37.184;2023-10-09T01:44:12;96877.41;;;-0.01;70.32
65534;BME280;53640;55.838;37.184;2023-10-09T01:46:38;96820.91;;;-0.34;69.69
65534;BME280;53640;55.838;37.184;2023-10-09T01:49:05;96856.44;;;-0.22;69.94
65534;BME280;53640;55.838;37.184;2023-10-09T01:51:35;96895.03;;;0.00;70.15
65534;BME280;53640;55.838;37.184;2023-10-09T01:54:04;96837.88;;;-0.29;69.84
65534;BME280;53640;55.838;37.184;2023-10-09T01:56:32;96878.88;;;-0.12;70.23
65534;BME280;53640;55.838;37.184;2023-10-09T01:59:03;96834.19;;;-0.34;69.91
65534;BME280;53640;55.838;37.184;2023-10-09T02:01:32;96865.63;;;-0.18;70.19
65534;BME280;53640;55.838;37.184;2023-10-09T02:03:59;96900.34;;;0.00;70.21
65534;BME280;53640;55.838;37.184;2023-10-09T02:06:32;96891.75;;;-0.08;69.70
65534;BME280;53640;55.838;37.184;2023-10-09T02:08:58;96878.31;;;-0.20;70.30
65534;BME280;53640;55.838;37.184;2023-10-09T02:11:25;96847.88;;;-0.31;70.21
65534;BME280;53640;55.838;37.184;2023-10-09T02:14:08;96887.13;;;-0.26;69.88
65534;BME280;53640;55.838;37.184;2023-10-09T02:16:47;96894.47;;;-0.22;70.10
65534;BME280;53640;55.838;37.184;2023-10-09T02:19:32;96916.56;;;-0.15;69.70
65534;BME280;53640;55.838;37.184;2023-10-09T02:22:02;96849.81;;;-0.65;69.96
65534;BME280;53640;55.838;37.184;2023-10-09T02:24:43;96903.50;;;-0.36;69.90
65534;BME280;53640;55.838;37.184;2023-10-09T02:27:19;96955.16;;;-0.05;69.85
65534;BME280;53640;55.838;37.184;2023-10-09T02:30:04;96946.19;;;-0.11;69.98
65534;BME280;53640;55.838;37.184;2023-10-09T02:32:51;96950.66;;;-0.12;70.30
65534;BME280;53640;55.838;37.184;2023-10-09T02:35:19;96911.06;;;-0.33;69.93
65534;BME280;53640;55.838;37.184;2023-10-09T02:38:03;96925.19;;;-0.32;69.99
65534;BME280;53640;55.838;37.184;2023-10-09T02:40:34;96929.66;;;-0.26;69.52
65534;BME280;53640;55.838;37.184;2023-10-09T02:43:07;96940.66;;;-0.16;69.56
65534;BME280;53640;55.838;37.184;2023-10-09T02:45:39;96966.78;;;0.07;69.89
65534;BME280;53640;55.838;37.184;2023-10-09T02:48:17;96957.59;;;-0.04;69.61
65534;BME280;53640;55.838;37.184;2023-10-09T02:50:47;96965.16;;;0.06;69.47
65534;BME280;53640;55.838;37.184;2023-10-09T02:53:13;96965.38;;;-0.02;68.61
65534;BME280;53640;55.838;37.184;2023-10-09T02:55:54;96970.72;;;-0.09;69.18
65534;BME280;53640;55.838;37.184;2023-10-09T02:58:40;97008.28;;;0.15;69.00
65534;BME280;53640;55.838;37.184;2023-10-09T03:01:11;96980.94;;;0.01;68.99
65534;BME280;53640;55.838;37.184;2023-10-09T03:03:41;97012.16;;;0.19;69.12
65534;BME280;53640;55.838;37.184;2023-10-09T03:06:15;97015.25;;;0.16;69.16
65534;BME280;53640;55.838;37.184;2023-10-09T03:08:51;96976.66;;;-0.07;69.42
65534;BME280;53640;55.838;37.184;2023-10-09T03:11:17;97000.94;;;0.10;69.53
65534;BME280;53640;55.838;37.184;2023-10-09T03:13:45;96988.09;;;0.00;68.93
65534;BME280;53640;55.838;37.184;2023-10-09T03:16:11;96962.16;;;-0.18;69.12
65534;BME280;53640;55.838;37.184;2023-10-09T03:18:52;97001.97;;;0.09;68.69
65534;BME280;53640;55.838;37.184;2023-10-09T03:21:19;96994.81;;;-0.04;69.11
65534;BME280;53640;55.838;37.184;2023-10-09T03:23:48;97028.97;;;0.19;68.65
65534;BME280;53640;55.838;37.184;2023-10-09T03:26:20;97001.81;;;-0.09;69.00
65534;BME280;53640;55.838;37.184;2023-10-09T03:28:48;97056.16;;;0.21;69.32
65534;BME280;53640;55.838;37.184;2023-10-09T03:31:14;97023.03;;;0.04;68.87
65534;BME280;53640;55.838;37.184;2023-10-09T03:33:41;97044.31;;;0.04;68.92
65534;BME280;53640;55.838;37.184;2023-10-09T03:36:07;97046.78;;;-0.01;69.04
65534;BME280;53640;55.838;37.184;2023-10-09T03:38:37;97023.50;;;-0.13;68.66
65534;BME280;53640;55.838;37.184;2023-10-09T03:41:05;97028.41;;;-0.16;69.16
65534;BME280;53640;55.838;37.184;2023-10-09T03:43:33;97041.91;;;-0.18;69.02
65534;BME280;53640;55.838;37.184;2023-10-09T03:46:10;97070.50;;;0.07;68.81
65534;BME280;53640;55.838;37.184;2023-10-09T03:48:52;97056.63;;;-0.08;68.75
65534;BME280;53640;55.838;37.184;2023-10-09T03:51:22;97040.88;;;-0.23;68.74
65534;BME280;53640;55.838;37.184;2023-10-09T03:53:49;97069.72;;;-0.07;68.84
65534;BME280;53640;55.838;37.184;2023-10-09T03:56:18;97056.25;;;-0.19;68.77
65534;BME280;53640;55.838;37.184;2023-10-09T03:58:48;97102.22;;;0.02;68.52
65534;BME280;53640;55.838;37.184;2023-10-09T04:01:17;97098.75;;;0.01;68.96
65534;BME280;53640;55.838;37.184;2023-10-09T04:03:50;97105.91;;;0.01;68.81
65534;BME280;53640;55.838;37.184;2023-10-09T04:06:27;97112.25;;;-0.00;68.79
65534;BME280;53640;55.838;37.184;2023-10-09T04:08:57;97128.19;;;0.06;68.20
65534;BME280;53640;55.838;37.184;2023-10-09T04:11:25;97120.03;;;0.01;68.62
65534;BME280;53640;55.838;37.184;2023-10-09T04:13:52;97131.06;;;0.05;68.63
65534;BME280;53640;55.838;37.184;2023-10-09T04:16:19;97096.72;;;-0.17;68.44
65534;BME280;53640;55.838;37.184;2023-10-09T04:18:58;97094.66;;;-0.28;68.26
65534;BME280;53640;55.838;37.184;2023-10-09T04:21:37;97132.91;;;-0.16;68.48
65534;BME280;53640;55.838;37.184;2023-10-09T04:24:05;97098.94;;;-0.47;68.06
65534;BME280;53640;55.838;37.184;2023-10-09T04:26:42;97148.47;;;-0.26;68.93
65534;BME280;53640;55.838;37.184;2023-10-09T04:29:15;97132.09;;;-0.29;69.44
65534;BME280;53640;55.838;37.184;2023-10-09T04:32:01;97107.75;;;-0.46;69.33
65534;BME280;53640;55.838;37.184;2023-10-09T04:34:28;97142.72;;;-0.23;69.51
65534;BME280;53640;55.838;37.184;2023-10-09T04:36:56;97144.56;;;-0.23;68.59
65534;BME280;53640;55.838;37.184;2023-10-09T04:39:34;97099.16;;;-0.48;69.21
65534;BME280;53640;55.838;37.184;2023-10-09T04:42:01;97096.91;;;-0.38;69.03
65534;BME280;53640;55.838;37.184;2023-10-09T04:45:03;97131.09;;;-0.22;69.02
65534;BME280;53640;55.838;37.184;2023-10-09T04:47:35;97156.44;;;-0.13;68.89
65534;BME280;53640;55.838;37.184;2023-10-09T04:50:06;97152.53;;;-0.17;69.58
65534;BME280;53640;55.838;37.184;2023-10-09T04:52:36;97153.38;;;-0.09;69.12
65534;BME280;53640;55.838;37.184;2023-10-09T04:55:04;97136.59;;;-0.30;69.15
65534;BME280;53640;55.838;37.184;2023-10-09T04:57:31;97160.53;;;-0.10;69.28
65534;BME280;53640;55.838;37.184;2023-10-09T05:00:05;97136.59;;;-0.37;69.18
65534;BME280;53640;55.838;37.184;2023-10-09T05:02:51;97157.66;;;-0.28;69.61
65534;BME280;53640;55.838;37.184;2023-10-09T05:05:28;97174.63;;;-0.16;69.28
65534;BME280;53640;55.838;37.184;2023-10-09T05:08:14;97184.66;;;-0.12;70.10
65534;BME280;53640;55.838;37.184;2023-10-09T05:10:52;97177.69;;;-0.19;69.70
65534;BME280;53640;55.838;37.184;2023-10-09T05:13:33;97160.09;;;-0.27;69.73
65534;BME280;53640;55.838;37.184;2023-10-09T05:16:16;97197.75;;;-0.17;69.85
65534;BME280;53640;55.838;37.184;2023-10-09T05:18:55;97176.25;;;-0.28;70.38
65534;BME280;53640;55.838;37.184;2023-10-09T05:21:39;97150.88;;;-0.38;69.64
65534;BME280;53640;55.838;37.184;2023-10-09T05:24:12;97166.25;;;-0.33;69.82
65534;BME280;53640;55.838;37.184;2023-10-09T05:26:45;97178.13;;;-0.22;69.73
65534;BME280;53640;55.838;37.184;2023-10-09T05:29:20;97218.63;;;0.06;70.27
65534;BME280;53640;55.838;37.184;2023-10-09T05:32:04;97188.13;;;-0.04;70.16
65534;BME280;53640;55.838;37.184;2023-10-09T05:34:43;97234.59;;;0.13;68.96
65534;BME280;53640;55.838;37.184;2023-10-09T05:37:26;97195.72;;;-0.15;69.14
65534;BME280;53640;55.838;37.184;2023-10-09T05:40:03;97198.16;;;-0.13;69.84
65534;BME280;53640;55.838;37.184;2023-10-09T05:42:42;97225.56;;;0.07;69.41
65534;BME280;53640;55.838;37.184;2023-10-09T05:45:16;97226.41;;;0.01;69.25
65534;BME280;53640;55.838;37.184;2023-10-09T05:47:44;97191.59;;;-0.04;69.04
65534;BME280;53640;55.838;37.184;2023-10-09T05:50:34;97218.00;;;0.11;69.23
65534;BME280;53640;55.838;37.184;2023-10-09T05:53:02;97221.69;;;0.03;68.82
65534;BME280;53640;55.838;37.184;2023-10-09T05:55:29;97246.69;;;0.09;69.59
65534;BME280;53640;55.838;37.184;2023-10-09T05:58:34;97230.09;;;0.07;69.86
65534;BME280;53640;55.838;37.184;2023-10-09T06:01:19;97239.09;;;0.13;70.04
65534;BME280;53640;55.838;37.184;2023-10-09T06:03:54;97271.47;;;0.36;69.57
65534;BME280;53640;55.838;37.184;2023-10-09T06:06:21;97251.19;;;0.28;69.19
65534;BME280;53640;55.838;37.184;2023-10-09T06:09:03;97260.81;;;0.36;69.47
65534;BME280;53640;55.838;37.184;2023-10-09T06:11:40;97307.72;;;0.50;68.88
65534;BME280;53640;55.838;37.184;2023-10-09T06:14:07;97273.31;;;0.35;68.81
65534;BME280;53640;55.838;37.184;2023-10-09T06:16:38;97258.13;;;0.29;68.82
65534;BME280;53640;55.838;37.184;2023-10-09T06:19:24;97303.81;;;0.53;68.77
65534;BME280;53640;55.838;37.184;2023-10-09T06:21:55;97244.44;;;0.19;68.54
65534;BME280;53640;55.838;37.184;2023-10-09T06:24:41;97296.66;;;0.47;68.69
65534;BME280;53640;55.838;37.184;2023-10-09T06:27:09;97312.63;;;0.47;68.85
65534;BME280;53640;55.838;37.184;2023-10-09T06:29:36;97307.09;;;0.42;68.29
65534;BME280;53640;55.838;37.184;2023-10-09T06:32:04;97303.38;;;0.36;68.87
65534;BME280;53640;55.838;37.184;2023-10-09T06:34:57;97299.13;;;0.42;68.43
65534;BME280;53640;55.838;37.184;2023-10-09T06:37:45;97306.06;;;0.43;68.41
65534;BME280;53640;55.838;37.184;2023-10-09T06:40:37;97317.53;;;0.50;68.70
65534;BME280;53640;55.838;37.184;2023-10-09T06:43:24;97335.75;;;0.59;68.16
65534;BME280;53640;55.838;37.184;2023-10-09T06:45:59;97328.78;;;0.58;68.27
65534;BME280;53640;55.838;37.184;2023-10-09T06:48:54;97311.59;;;0.48;68.75
65534;BME280;53640;55.838;37.184;2023-10-09T06:51:26;97290.50;;;0.40;68.59
65534;BME280;53640;55.838;37.184;2023-10-09T06:53:54;97334.97;;;0.72;68.17
65534;BME280;53640;55.838;37.184;2023-10-09T06:56:21;97354.41;;;0.79;69.33
65534;BME280;53640;55.838;37.184;2023-10-09T06:58:59;97330.44;;;0.73;68.71
65534;BME280;53640;55.838;37.184;2023-10-09T07:01:30;97349.06;;;0.66;69.45
65534;BME280;53640;55.838;37.184;2023-10-09T07:04:08;97348.06;;;0.74;69.28
65534;BME280;53640;55.838;37.184;2023-10-09T07:06:46;97290.31;;;0.34;68.55
65534;BME280;53640;55.838;37.184;2023-10-09T07:09:13;97375.13;;;0.91;69.10
65534;BME280;53640;55.838;37.184;2023-10-09T07:11:45;97367.13;;;0.91;68.93
65534;BME280;53640;55.838;37.184;2023-10-09T07:14:21;97326.53;;;0.75;67.85
65534;BME280;53640;55.838;37.184;2023-10-09T07:16:59;97358.09;;;0.78;69.01
65534;BME280;53640;55.838;37.184;2023-10-09T07:19:28;97390.91;;;0.99;67.82
65534;BME280;53640;55.838;37.184;2023-10-09T07:22:01;97372.44;;;0.77;68.11
65534;BME280;53640;55.838;37.184;2023-10-09T07:24:30;97391.50;;;0.88;68.20
65534;BME280;53640;55.838;37.184;2023-10-09T07:27:17;97401.13;;;0.89;68.16
65534;BME280;53640;55.838;37.184;2023-10-09T07:29:43;97397.84;;;0.80;68.20
65534;BME280;53640;55.838;37.184;2023-10-09T07:32:17;97385.13;;;0.75;68.21
65534;BME280;53640;55.838;37.184;2023-10-09T07:34:48;97371.41;;;0.65;68.05
65534;BME280;53640;55.838;37.184;2023-10-09T07:37:22;97399.50;;;0.88;68.53
65534;BME280;53640;55.838;37.184;2023-10-09T07:39:50;97384.50;;;0.73;68.38
65534;BME280;53640;55.838;37.184;2023-10-09T07:42:24;97394.16;;;0.88;68.69
65534;BME280;53640;55.838;37.184;2023-10-09T07:45:20;97392.50;;;0.87;67.80
65534;BME280;53640;55.838;37.184;2023-10-09T07:47:49;97414.69;;;1.00;67.36
65534;BME280;53640;55.838;37.184;2023-10-09T07:50:36;97408.31;;;1.01;67.32
65534;BME280;53640;55.838;37.184;2023-10-09T07:53:15;97439.88;;;1.11;67.36
65534;BME280;53640;55.838;37.184;2023-10-09T07:55:46;97440.53;;;1.13;67.15
65534;BME280;53640;55.838;37.184;2023-10-09T07:58:22;97440.28;;;1.08;67.66
65534;BME280;53640;55.838;37.184;2023-10-09T08:00:55;97442.75;;;1.16;67.51
65534;BME280;53640;55.838;37.184;2023-10-09T08:03:43;97429.84;;;1.06;67.26
65534;BME280;53640;55.838;37.184;2023-10-09T08:06:13;97449.31;;;1.20;67.37
65534;BME280;53640;55.838;37.184;2023-10-09T08:08:57;97431.91;;;1.11;66.95
65534;BME280;53640;55.838;37.184;2023-10-09T08:14:09;97441.94;;;1.22;67.01
65534;BME280;53640;55.838;37.184;2023-10-09T08:16:55;97469.00;;;1.46;67.05
65534;BME280;53640;55.838;37.184;2023-10-09T08:19:41;97451.78;;;1.28;66.14
65534;BME280;53640;55.838;37.184;2023-10-09T08:22:28;97478.00;;;1.58;66.59
65534;BME280;53640;55.838;37.184;2023-10-09T08:24:56;97439.88;;;1.44;66.12
65534;BME280;53640;55.838;37.184;2023-10-09T08:27:27;97479.84;;;1.64;66.60
65534;BME280;53640;55.838;37.184;2023-10-09T08:30:14;97455.44;;;1.61;67.72
65534;BME280;53640;55.838;37.184;2023-10-09T08:32:52;97479.22;;;1.89;66.58
65534;BME280;53640;55.838;37.184;2023-10-09T08:35:29;97454.63;;;1.60;65.02
65534;BME280;53640;55.838;37.184;2023-10-09T08:37:56;97478.81;;;1.65;66.22
65534;BME280;53640;55.838;37.184;2023-10-09T08:40:35;97488.84;;;1.76;66.01
65534;BME280;53640;55.838;37.184;2023-10-09T08:43:10;97479.66;;;1.66;64.79
65534;BME280;53640;55.838;37.184;2023-10-09T08:45:46;97465.06;;;1.68;64.81
65534;BME280;53640;55.838;37.184;2023-10-09T08:48:13;97516.56;;;1.89;66.58
65534;BME280;53640;55.838;37.184;2023-10-09T08:50:45;97484.97;;;1.72;64.74
65534;BME280;53640;55.838;37.184;2023-10-09T08:53:12;97512.44;;;1.93;64.02
65534;BME280;53640;55.838;37.184;2023-10-09T08:55:42;97484.56;;;1.82;64.54
65534;BME280;53640;55.838;37.184;2023-10-09T08:58:09;97484.97;;;1.79;64.22
65534;BME280;53640;55.838;37.184;2023-10-09T09:00:47;97534.97;;;2.10;64.20
65534;BME280;53640;55.838;37.184;2023-10-09T09:03:18;97510.56;;;2.06;64.01
65534;BME280;53640;55.838;37.184;2023-10-09T09:05:47;97534.38;;;2.08;63.66
65534;BME280;53640;55.838;37.184;2023-10-09T09:08:25;97551.84;;;1.97;62.68
65534;BME280;53640;55.838;37.184;2023-10-09T09:11:01;97522.91;;;2.01;63.66
65534;BME280;53640;55.838;37.184;2023-10-09T09:14:06;97518.59;;;1.87;62.94
65534;BME280;53640;55.838;37.184;2023-10-09T09:16:41;97517.78;;;1.73;64.86
65534;BME280;53640;55.838;37.184;2023-10-09T09:19:10;97538.72;;;1.96;63.62
65534;BME280;53640;55.838;37.184;2023-10-09T09:21:39;97530.91;;;1.88;62.63
65534;BME280;53640;55.838;37.184;2023-10-09T09:24:12;97514.94;;;1.54;64.31
65534;BME280;53640;55.838;37.184;2023-10-09T09:26:54;97515.75;;;1.62;63.83
65534;BME280;53640;55.838;37.184;2023-10-09T09:32:07;97530.53;;;1.77;62.72
65534;BME280;53640;55.838;37.184;2023-10-09T09:37:23;97526.00;;;1.85;62.76
65534;BME280;53640;55.838;37.184;2023-10-09T09:40:10;97552.25;;;1.88;62.83
65534;BME280;53640;55.838;37.184;2023-10-09T09:42:57;97564.38;;;1.97;63.18
65534;BME280;53640;55.838;37.184;2023-10-09T09:45:33;97553.28;;;1.87;62.33
65534;BME280;53640;55.838;37.184;2023-10-09T09:48:02;97582.63;;;2.00;62.97
65534;BME280;53640;55.838;37.184;2023-10-09T09:50:33;97554.50;;;1.84;62.14
65534;BME280;53640;55.838;37.184;2023-10-09T09:53:03;97538.72;;;1.89;63.74
65534;BME280;53640;55.838;37.184;2023-10-09T09:55:34;97568.66;;;1.91;63.53
65534;BME280;53640;55.838;37.184;2023-10-09T09:58:02;97508.78;;;1.54;62.50
65534;BME280;53640;55.838;37.184;2023-10-09T10:00:33;97569.69;;;1.97;62.78
65534;BME280;53640;55.838;37.184;2023-10-09T10:03:13;97543.44;;;1.80;63.27
65534;BME280;53640;55.838;37.184;2023-10-09T10:05:42;97560.66;;;2.11;62.24
65534;BME280;53640;55.838;37.184;2023-10-09T10:08:17;97596.13;;;2.18;60.84
65534;BME280;53640;55.838;37.184;2023-10-09T10:10:48;97534.16;;;2.03;62.00
65534;BME280;53640;55.838;37.184;2023-10-09T10:16:10;97589.13;;;2.44;61.29
65534;BME280;53640;55.838;37.184;2023-10-09T10:18:53;97557.56;;;2.14;61.24
65534;BME280;53640;55.838;37.184;2023-10-09T10:21:40;97596.53;;;2.42;61.69
65534;BME280;53640;55.838;37.184;2023-10-09T10:35:19;97597.13;;;2.44;60.46
65534;BME280;53640;55.838;37.184;2023-10-09T10:38:22;97549.19;;;1.97;60.67
65534;BME280;53640;55.838;37.184;2023-10-09T10:40:48;97580.13;;;2.18;60.93
65534;BME280;53640;55.838;37.184;2023-10-09T10:43:24;97603.09;;;2.33;61.51
65534;BME280;53640;55.838;37.184;2023-10-09T10:46:09;97588.78;;;2.07;61.57
65534;BME280;53640;55.838;37.184;2023-10-09T10:48:42;97643.78;;;2.35;61.82
65534;BME280;53640;55.838;37.184;2023-10-09T10:51:14;97636.81;;;2.27;62.73
65534;BME280;53640;55.838;37.184;2023-10-09T10:53:52;97627.75;;;2.21;63.05
65534;BME280;53640;55.838;37.184;2023-10-09T10:56:24;97594.13;;;1.87;62.81
65534;BME280;53640;55.838;37.184;2023-10-09T10:59:11;97605.22;;;1.97;63.14
65534;BME280;53640;55.838;37.184;2023-10-09T11:01:38;97586.94;;;1.74;62.91
65534;BME280;53640;55.838;37.184;2023-10-09T11:04:23;97646.06;;;2.11;63.59
65534;BME280;53640;55.838;37.184;2023-10-09T11:06:57;97680.53;;;2.06;64.04
65534;BME280;53640;55.838;37.184;2023-10-09T11:15:14;97672.34;;;2.08;64.22
65534;BME280;53640;55.838;37.184;2023-10-09T11:18:03;97661.84;;;2.06;64.77
65534;BME280;53640;55.838;37.184;2023-10-09T11:20:57;97627.16;;;1.86;63.97
65534;BME280;53640;55.838;37.184;2023-10-09T11:23:30;97630.66;;;2.00;64.40
65534;BME280;53640;55.838;37.184;2023-10-09T11:26:04;97624.28;;;1.88;63.70
65534;BME280;53640;55.838;37.184;2023-10-09T11:29:08;97698.41;;;2.32;64.57
65534;BME280;53640;55.838;37.184;2023-10-09T11:34:28;97668.41;;;2.10;64.05
65534;BME280;53640;55.838;37.184;2023-10-09T11:37:13;97680.34;;;2.21;64.36
65534;BME280;53640;55.838;37.184;2023-10-09T11:39:51;97685.66;;;2.14;63.67
65534;BME280;53640;55.838;37.184;2023-10-09T11:42:19;97702.31;;;2.16;63.95
65534;BME280;53640;55.838;37.184;2023-10-09T11:45:03;97686.88;;;1.98;64.67
65534;BME280;53640;55.838;37.184;2023-10-09T11:47:50;97693.88;;;2.06;64.85
65534;BME280;53640;55.838;37.184;2023-10-09T11:53:10;97729.22;;;2.15;65.25
65534;BME280;53640;55.838;37.184;2023-10-09T11:55:57;97694.25;;;1.76;64.95
65534;BME280;53640;55.838;37.184;2023-10-09T11:58:24;97739.03;;;1.94;65.44
65534;BME280;53640;55.838;37.184;2023-10-09T12:00:52;97744.34;;;1.94;65.46
65534;BME280;53640;55.838;37.184;2023-10-09T12:03:26;97719.72;;;1.86;66.58
65534;BME280;53640;55.838;37.184;2023-10-09T12:06:01;97715.63;;;1.90;65.20
65534;BME280;53640;55.838;37.184;2023-10-09T12:08:32;97739.84;;;1.95;65.27
65534;BME280;53640;55.838;37.184;2023-10-09T12:10:59;97726.28;;;1.90;65.53
65534;BME280;53640;55.838;37.184;2023-10-09T12:13:29;97728.13;;;1.82;65.65
65534;BME280;53640;55.838;37.184;2023-10-09T12:15:55;97762.03;;;2.02;65.30
65534;BME280;53640;55.838;37.184;2023-10-09T12:18:24;97734.50;;;1.81;64.87
65534;BME280;53640;55.838;37.184;2023-10-09T12:20:51;97708.19;;;1.59;64.75
65534;BME280;53640;55.838;37.184;2023-10-09T12:23:20;97758.94;;;1.85;64.89
65534;BME280;53640;55.838;37.184;2023-10-09T12:25:50;97755.00;;;1.81;65.19
65534;BME280;53640;55.838;37.184;2023-10-09T12:28:17;97734.66;;;1.80;65.94
65534;BME280;53640;55.838;37.184;2023-10-09T12:30:49;97762.47;;;2.12;65.28
65534;BME280;53640;55.838;37.184;2023-10-09T12:33:20;97735.50;;;1.80;64.50
65534;BME280;53640;55.838;37.184;2023-10-09T12:35:54;97787.09;;;2.14;64.72
65534;BME280;53640;55.838;37.184;2023-10-09T12:38:28;97770.28;;;2.07;64.01
65534;BME280;53640;55.838;37.184;2023-10-09T12:41:05;97787.31;;;2.13;64.02
65534;BME280;53640;55.838;37.184;2023-10-09T12:43:56;97748.03;;;1.87;64.30
65534;BME280;53640;55.838;37.184;2023-10-09T12:46:25;97784.84;;;2.11;64.33
65534;BME280;53640;55.838;37.184;2023-10-09T12:48:58;97775.13;;;1.90;64.44
65534;BME280;53640;55.838;37.184;2023-10-09T12:51:24;97759.50;;;1.80;64.73
65534;BME280;53640;55.838;37.184;2023-10-09T12:53:57;97801.03;;;2.03;64.83
65534;BME280;53640;55.838;37.184;2023-10-09T12:56:24;97780.50;;;1.97;64.94
65534;BME280;53640;55.838;37.184;2023-10-09T12:58:59;97804.31;;;2.05;65.27
65534;BME280;53640;55.838;37.184;2023-10-09T13:01:28;97810.09;;;2.15;65.54
65534;BME280;53640;55.838;37.184;2023-10-09T13:04:13;97797.13;;;2.05;64.49
65534;BME280;53640;55.838;37.184;2023-10-09T13:06:45;97808.81;;;1.98;64.98
65534;BME280;53640;55.838;37.184;2023-10-09T13:09:13;97717.50;;;1.35;65.28
65534;BME280;53640;55.838;37.184;2023-10-09T13:11:40;97806.50;;;1.88;65.99
65534;BME280;53640;55.838;37.184;2023-10-09T13:14:07;97754.44;;;1.38;65.35
65534;BME280;53640;55.838;37.184;2023-10-09T13:16:49;97813.50;;;1.82;65.70
65534;BME280;53640;55.838;37.184;2023-10-09T13:19:19;97813.28;;;1.77;65.76
65534;BME280;53640;55.838;37.184;2023-10-09T13:21:46;97805.84;;;1.73;65.90
65534;BME280;53640;55.838;37.184;2023-10-09T13:24:14;97808.31;;;1.68;65.73
65534;BME280;53640;55.838;37.184;2023-10-09T13:26:45;97802.88;;;1.48;66.38
65534;BME280;53640;55.838;37.184;2023-10-09T13:29:13;97833.78;;;1.77;67.11
65534;BME280;53640;55.838;37.184;2023-10-09T13:31:40;97804.13;;;1.52;67.09
65534;BME280;53640;55.838;37.184;2023-10-09T13:34:12;97845.91;;;1.79;66.64
65534;BME280;53640;55.838;37.184;2023-10-09T13:36:41;97818.31;;;1.59;66.75
65534;BME280;53640;55.838;37.184;2023-10-09T13:39:16;97809.00;;;1.42;66.77
65534;BME280;53640;55.838;37.184;2023-10-09T13:41:54;97842.25;;;1.46;66.44
65534;BME280;53640;55.838;37.184;2023-10-09T13:44:30;97860.41;;;1.64;66.20
65534;BME280;53640;55.838;37.184;2023-10-09T13:47:01;97853.94;;;1.45;66.78
65534;BME280;53640;55.838;37.184;2023-10-09T13:49:32;97845.94;;;1.45;66.85
65534;BME280;53640;55.838;37.184;2023-10-09T13:52:00;97874.94;;;1.61;66.71
65534;BME280;53640;55.838;37.184;2023-10-09T13:54:29;97798.56;;;1.12;66.35
65534;BME280;53640;55.838;37.184;2023-10-09T13:57:01;97882.31;;;1.59;66.54
65534;BME280;53640;55.838;37.184;2023-10-09T13:59:34;97870.97;;;1.50;66.81
65534;BME280;53640;55.838;37.184;2023-10-09T14:02:09;97866.41;;;1.38;66.50
65534;BME280;53640;55.838;37.184;2023-10-09T14:04:36;97834.63;;;1.08;66.69
65534;BME280;53640;55.838;37.184;2023-10-09T14:07:03;97847.66;;;1.24;67.03
65534;BME280;53640;55.838;37.184;2023-10-09T14:09:32;97872.97;;;1.42;66.87